RYR5PK LICC-LIMJ
Flight info
| Callsign | RYR5PK |
|---|---|
| Flight time | 1h 23m |
| Altitude | 38000 |
| Route | BUDIN DCT TAGEL DCT ELB DCT BETEN/N0323F180 M729 IDONA |
| Aircraft | B38M/M-SDE1FGHILORVWXY/HB1 |
Departure
| Time | 2026-04-26 16:38 |
|---|---|
| Airport | Catania-Fontanarossa Airport (LICC) |
Arrival
| Time | 2026-04-26 18:01 |
|---|---|
| Airport | Genoa Cristoforo Colombo Airport (LIMJ) |
| Time | Latitude | Longitude | Altitude | Speed | Heading |
|---|---|---|---|---|---|
| 2026-04-26 15:51 | 37.46926 | 15.06814 | 34 ft | 0 kts | 354° |
| 2026-04-26 16:20 | 37.46908 | 15.06818 | 34 ft | 4 kts | 342° |
| 2026-04-26 16:20 | 37.46886 | 15.06833 | 34 ft | 4 kts | 315° |
| 2026-04-26 16:21 | 37.46871 | 15.06860 | 34 ft | 4 kts | 288° |
| 2026-04-26 16:21 | 37.46866 | 15.06893 | 34 ft | 4 kts | 270° |
| 2026-04-26 16:21 | 37.46867 | 15.06918 | 34 ft | 0 kts | 264° |
| 2026-04-26 16:24 | 37.46866 | 15.06899 | 34 ft | 3 kts | 264° |
| 2026-04-26 16:24 | 37.46863 | 15.06863 | 34 ft | 2 kts | 264° |
| 2026-04-26 16:25 | 37.46863 | 15.06856 | 34 ft | 2 kts | 264° |
| 2026-04-26 16:25 | 37.46860 | 15.06832 | 34 ft | 2 kts | 263° |
| 2026-04-26 16:25 | 37.46860 | 15.06830 | 34 ft | 0 kts | 263° |
| 2026-04-26 16:26 | 37.46860 | 15.06829 | 34 ft | 0 kts | 263° |
| 2026-04-26 16:26 | 37.46860 | 15.06828 | 34 ft | 1 kts | 263° |
| 2026-04-26 16:26 | 37.46859 | 15.06819 | 34 ft | 3 kts | 263° |
| 2026-04-26 16:27 | 37.46856 | 15.06782 | 34 ft | 6 kts | 264° |
| 2026-04-26 16:27 | 37.46851 | 15.06721 | 34 ft | 7 kts | 264° |
| 2026-04-26 16:27 | 37.46845 | 15.06646 | 34 ft | 10 kts | 264° |
| 2026-04-26 16:27 | 37.46838 | 15.06563 | 34 ft | 11 kts | 264° |
| 2026-04-26 16:28 | 37.46832 | 15.06488 | 34 ft | 8 kts | 264° |
| 2026-04-26 16:28 | 37.46825 | 15.06409 | 34 ft | 9 kts | 264° |
| 2026-04-26 16:28 | 37.46818 | 15.06319 | 34 ft | 12 kts | 264° |
| 2026-04-26 16:28 | 37.46808 | 15.06206 | 34 ft | 14 kts | 264° |
| 2026-04-26 16:29 | 37.46797 | 15.06077 | 34 ft | 15 kts | 264° |
| 2026-04-26 16:29 | 37.46786 | 15.05941 | 34 ft | 17 kts | 264° |
| 2026-04-26 16:29 | 37.46773 | 15.05789 | 34 ft | 16 kts | 264° |
| 2026-04-26 16:29 | 37.46764 | 15.05674 | 34 ft | 13 kts | 264° |
| 2026-04-26 16:30 | 37.46755 | 15.05569 | 34 ft | 12 kts | 264° |
| 2026-04-26 16:30 | 37.46747 | 15.05479 | 34 ft | 9 kts | 264° |
| 2026-04-26 16:30 | 37.46742 | 15.05416 | 34 ft | 6 kts | 264° |
| 2026-04-26 16:30 | 37.46739 | 15.05377 | 34 ft | 3 kts | 264° |
| 2026-04-26 16:31 | 37.46736 | 15.05350 | 34 ft | 4 kts | 259° |
| 2026-04-26 16:31 | 37.46723 | 15.05318 | 31 ft | 2 kts | 230° |
| 2026-04-26 16:31 | 37.46711 | 15.05303 | 27 ft | 0 kts | 222° |
| 2026-04-26 16:33 | 37.46706 | 15.05297 | 25 ft | 2 kts | 222° |
| 2026-04-26 16:33 | 37.46686 | 15.05275 | 35 ft | 5 kts | 221° |
| 2026-04-26 16:33 | 37.46675 | 15.05263 | 35 ft | 0 kts | 221° |
| 2026-04-26 16:35 | 37.46675 | 15.05262 | 35 ft | 1 kts | 221° |
| 2026-04-26 16:35 | 37.46653 | 15.05239 | 35 ft | 9 kts | 221° |
| 2026-04-26 16:36 | 37.46583 | 15.05197 | 37 ft | 11 kts | 163° |
| 2026-04-26 16:36 | 37.46562 | 15.05250 | 37 ft | 6 kts | 85° |
| 2026-04-26 16:36 | 37.46566 | 15.05307 | 37 ft | 5 kts | 84° |
| 2026-04-26 16:36 | 37.46567 | 15.05321 | 37 ft | 0 kts | 83° |
| 2026-04-26 16:37 | 37.46568 | 15.05329 | 37 ft | 4 kts | 83° |
| 2026-04-26 16:37 | 37.46587 | 15.05550 | 36 ft | 64 kts | 84° |
| 2026-04-26 16:37 | 37.46662 | 15.06447 | 40 ft | 141 kts | 83° |
| 2026-04-26 16:37 | 37.46774 | 15.07850 | 480 ft | 170 kts | 84° |
| 2026-04-26 16:38 | 37.46907 | 15.09349 | 1507 ft | 175 kts | 81° |
| 2026-04-26 16:38 | 37.47149 | 15.10942 | 2253 ft | 198 kts | 82° |
| 2026-04-26 16:38 | 37.47400 | 15.12795 | 2865 ft | 230 kts | 81° |
| 2026-04-26 16:38 | 37.47682 | 15.14875 | 3608 ft | 255 kts | 81° |
| 2026-04-26 16:39 | 37.47992 | 15.17109 | 4786 ft | 258 kts | 79° |
| 2026-04-26 16:39 | 37.48305 | 15.19353 | 5986 ft | 263 kts | 79° |
| 2026-04-26 16:39 | 37.48622 | 15.21626 | 7192 ft | 264 kts | 79° |
| 2026-04-26 16:39 | 37.48942 | 15.23922 | 8306 ft | 268 kts | 79° |
| 2026-04-26 16:40 | 37.49270 | 15.26262 | 9395 ft | 273 kts | 79° |
| 2026-04-26 16:40 | 37.49959 | 15.28544 | 10189 ft | 289 kts | 55° |
| 2026-04-26 16:40 | 37.51456 | 15.30329 | 10843 ft | 306 kts | 32° |
| 2026-04-26 16:40 | 37.53288 | 15.31748 | 11557 ft | 319 kts | 32° |
| 2026-04-26 16:41 | 37.55206 | 15.33262 | 12382 ft | 328 kts | 32° |
| 2026-04-26 16:41 | 37.57153 | 15.34791 | 13344 ft | 333 kts | 32° |
| 2026-04-26 16:41 | 37.59151 | 15.36359 | 14183 ft | 340 kts | 32° |
| 2026-04-26 16:41 | 37.61172 | 15.37945 | 15020 ft | 343 kts | 31° |
| 2026-04-26 16:42 | 37.63195 | 15.39532 | 15831 ft | 348 kts | 31° |
| 2026-04-26 16:42 | 37.65264 | 15.41157 | 16643 ft | 352 kts | 31° |
| 2026-04-26 16:42 | 37.67355 | 15.42799 | 17459 ft | 356 kts | 31° |
| 2026-04-26 16:42 | 37.69517 | 15.44362 | 18208 ft | 360 kts | 21° |
| 2026-04-26 16:43 | 37.71957 | 15.45071 | 18914 ft | 361 kts | 1° |
| 2026-04-26 16:43 | 37.74447 | 15.44707 | 19580 ft | 362 kts | 342° |
| 2026-04-26 16:43 | 37.76793 | 15.43650 | 20243 ft | 364 kts | 338° |
| 2026-04-26 16:43 | 37.79175 | 15.42521 | 20897 ft | 367 kts | 338° |
| 2026-04-26 16:44 | 37.81567 | 15.41359 | 21576 ft | 369 kts | 337° |
| 2026-04-26 16:44 | 37.83972 | 15.40172 | 22242 ft | 372 kts | 336° |
| 2026-04-26 16:44 | 37.86387 | 15.38970 | 22893 ft | 375 kts | 336° |
| 2026-04-26 16:44 | 37.88827 | 15.37750 | 23529 ft | 378 kts | 337° |
| 2026-04-26 16:45 | 37.91287 | 15.36517 | 24039 ft | 382 kts | 336° |
| 2026-04-26 16:45 | 37.93765 | 15.35273 | 24577 ft | 384 kts | 336° |
| 2026-04-26 16:45 | 37.96259 | 15.34020 | 25112 ft | 386 kts | 336° |
| 2026-04-26 16:45 | 37.98762 | 15.32762 | 25620 ft | 388 kts | 336° |
| 2026-04-26 16:46 | 38.01284 | 15.31493 | 26140 ft | 390 kts | 336° |
| 2026-04-26 16:46 | 38.03782 | 15.30236 | 26653 ft | 392 kts | 336° |
| 2026-04-26 16:46 | 38.06328 | 15.28953 | 27156 ft | 395 kts | 335° |
| 2026-04-26 16:46 | 38.08886 | 15.27664 | 27631 ft | 397 kts | 335° |
| 2026-04-26 16:47 | 38.11464 | 15.26363 | 28087 ft | 399 kts | 335° |
| 2026-04-26 16:47 | 38.14047 | 15.25061 | 28554 ft | 401 kts | 335° |
| 2026-04-26 16:47 | 38.16652 | 15.23743 | 28979 ft | 405 kts | 335° |
| 2026-04-26 16:47 | 38.19276 | 15.22416 | 29449 ft | 407 kts | 335° |
| 2026-04-26 16:48 | 38.21912 | 15.21082 | 29893 ft | 409 kts | 335° |
| 2026-04-26 16:48 | 38.24561 | 15.19740 | 30315 ft | 411 kts | 335° |
| 2026-04-26 16:48 | 38.27228 | 15.18389 | 30674 ft | 413 kts | 335° |
| 2026-04-26 16:48 | 38.29903 | 15.17032 | 31058 ft | 415 kts | 335° |
| 2026-04-26 16:49 | 38.32589 | 15.15668 | 31423 ft | 417 kts | 335° |
| 2026-04-26 16:49 | 38.35288 | 15.14297 | 31785 ft | 419 kts | 335° |
| 2026-04-26 16:49 | 38.38001 | 15.12918 | 32142 ft | 421 kts | 335° |
| 2026-04-26 16:49 | 38.40736 | 15.11526 | 32391 ft | 425 kts | 335° |
| 2026-04-26 16:50 | 38.43491 | 15.10122 | 32761 ft | 427 kts | 335° |
| 2026-04-26 16:50 | 38.46250 | 15.08713 | 33104 ft | 428 kts | 334° |
| 2026-04-26 16:50 | 38.48824 | 15.06858 | 33444 ft | 424 kts | 320° |
| 2026-04-26 16:50 | 38.51194 | 15.04604 | 33796 ft | 426 kts | 322° |
| 2026-04-26 16:51 | 38.53598 | 15.02383 | 34196 ft | 426 kts | 321° |
| 2026-04-26 16:51 | 38.55982 | 15.00154 | 34603 ft | 424 kts | 321° |
| 2026-04-26 16:51 | 38.58359 | 14.97919 | 34962 ft | 424 kts | 321° |
| 2026-04-26 16:51 | 38.60731 | 14.95683 | 35305 ft | 424 kts | 321° |
| 2026-04-26 16:52 | 38.63100 | 14.93446 | 35639 ft | 424 kts | 321° |
| 2026-04-26 16:52 | 38.64675 | 14.91959 | 35824 ft | 425 kts | 321° |
| 2026-04-26 16:52 | 38.67823 | 14.88981 | 36208 ft | 426 kts | 321° |
| 2026-04-26 16:52 | 38.70204 | 14.86726 | 36519 ft | 425 kts | 321° |
| 2026-04-26 16:53 | 38.72581 | 14.84474 | 36845 ft | 425 kts | 321° |
| 2026-04-26 16:53 | 38.74956 | 14.82223 | 37158 ft | 424 kts | 321° |
| 2026-04-26 16:53 | 38.77327 | 14.79972 | 37472 ft | 424 kts | 321° |
| 2026-04-26 16:53 | 38.79691 | 14.77726 | 37767 ft | 423 kts | 321° |
| 2026-04-26 16:54 | 38.82052 | 14.75482 | 38054 ft | 423 kts | 321° |
| 2026-04-26 16:54 | 38.84420 | 14.73229 | 38180 ft | 424 kts | 321° |
| 2026-04-26 16:54 | 38.89135 | 14.68737 | 38151 ft | 420 kts | 321° |
| 2026-04-26 16:55 | 38.93830 | 14.64256 | 38149 ft | 421 kts | 321° |
| 2026-04-26 16:55 | 38.98534 | 14.59759 | 38146 ft | 421 kts | 321° |
| 2026-04-26 16:56 | 39.05578 | 14.53011 | 38146 ft | 421 kts | 321° |
| 2026-04-26 16:57 | 39.10273 | 14.48504 | 38149 ft | 421 kts | 321° |
| 2026-04-26 16:57 | 39.17287 | 14.41756 | 38152 ft | 421 kts | 321° |
| 2026-04-26 16:58 | 39.21195 | 14.37990 | 38148 ft | 422 kts | 321° |
| 2026-04-26 16:59 | 39.29036 | 14.30415 | 38147 ft | 422 kts | 321° |
| 2026-04-26 17:00 | 39.38421 | 14.21321 | 38149 ft | 422 kts | 321° |
| 2026-04-26 17:00 | 39.45431 | 14.14507 | 38152 ft | 422 kts | 321° |
| 2026-04-26 17:01 | 39.50128 | 14.09931 | 38151 ft | 422 kts | 321° |
| 2026-04-26 17:01 | 39.54823 | 14.05350 | 38150 ft | 422 kts | 321° |
| 2026-04-26 17:02 | 39.59514 | 14.00765 | 38143 ft | 422 kts | 321° |
| 2026-04-26 17:02 | 39.64201 | 13.96176 | 38148 ft | 422 kts | 321° |
| 2026-04-26 17:03 | 39.68895 | 13.91571 | 38145 ft | 422 kts | 321° |
| 2026-04-26 17:03 | 39.73582 | 13.86966 | 38149 ft | 422 kts | 321° |
| 2026-04-26 17:04 | 39.78240 | 13.82381 | 38147 ft | 423 kts | 321° |
| 2026-04-26 17:04 | 39.82932 | 13.77754 | 38137 ft | 423 kts | 321° |
| 2026-04-26 17:05 | 39.87619 | 13.73124 | 38150 ft | 423 kts | 321° |
| 2026-04-26 17:05 | 39.92309 | 13.68484 | 38145 ft | 423 kts | 321° |
| 2026-04-26 17:06 | 39.96989 | 13.63845 | 38137 ft | 423 kts | 321° |
| 2026-04-26 17:06 | 40.01646 | 13.59220 | 38138 ft | 423 kts | 321° |
| 2026-04-26 17:07 | 40.06325 | 13.54566 | 38147 ft | 423 kts | 321° |
| 2026-04-26 17:07 | 40.11012 | 13.49895 | 38143 ft | 423 kts | 321° |
| 2026-04-26 17:08 | 40.15691 | 13.45226 | 38137 ft | 424 kts | 321° |
| 2026-04-26 17:08 | 40.20381 | 13.40537 | 38139 ft | 424 kts | 321° |
| 2026-04-26 17:09 | 40.23485 | 13.37430 | 38144 ft | 424 kts | 321° |
| 2026-04-26 17:09 | 40.29706 | 13.31139 | 38140 ft | 423 kts | 317° |
| 2026-04-26 17:10 | 40.34115 | 13.26026 | 38139 ft | 423 kts | 317° |
| 2026-04-26 17:10 | 40.38554 | 13.20950 | 38155 ft | 423 kts | 317° |
| 2026-04-26 17:11 | 40.42999 | 13.15872 | 38141 ft | 423 kts | 317° |
| 2026-04-26 17:11 | 40.47415 | 13.10820 | 38137 ft | 423 kts | 317° |
| 2026-04-26 17:12 | 40.54080 | 13.03177 | 38142 ft | 423 kts | 317° |
| 2026-04-26 17:13 | 40.60708 | 12.95557 | 38143 ft | 423 kts | 317° |
| 2026-04-26 17:14 | 40.67353 | 12.87896 | 38142 ft | 422 kts | 317° |
| 2026-04-26 17:14 | 40.73242 | 12.81088 | 38141 ft | 422 kts | 317° |
| 2026-04-26 17:15 | 40.79875 | 12.73400 | 38138 ft | 423 kts | 317° |
| 2026-04-26 17:16 | 40.84260 | 12.68308 | 38148 ft | 423 kts | 317° |
| 2026-04-26 17:16 | 40.88677 | 12.63167 | 38147 ft | 422 kts | 317° |
| 2026-04-26 17:17 | 40.93090 | 12.58022 | 38144 ft | 422 kts | 317° |
| 2026-04-26 17:17 | 40.97473 | 12.52902 | 38144 ft | 422 kts | 317° |
| 2026-04-26 17:18 | 41.01877 | 12.47749 | 38139 ft | 422 kts | 317° |
| 2026-04-26 17:18 | 41.06286 | 12.42580 | 38136 ft | 422 kts | 317° |
| 2026-04-26 17:19 | 41.12883 | 12.34827 | 38145 ft | 423 kts | 317° |
| 2026-04-26 17:19 | 41.17287 | 12.29639 | 38140 ft | 423 kts | 317° |
| 2026-04-26 17:20 | 41.20948 | 12.25320 | 38143 ft | 423 kts | 316° |
| 2026-04-26 17:20 | 41.26067 | 12.19268 | 38140 ft | 423 kts | 316° |
| 2026-04-26 17:21 | 41.30464 | 12.14061 | 38141 ft | 423 kts | 316° |
| 2026-04-26 17:21 | 41.34853 | 12.08851 | 38140 ft | 423 kts | 316° |
| 2026-04-26 17:22 | 41.39215 | 12.03665 | 38138 ft | 423 kts | 316° |
| 2026-04-26 17:22 | 41.43608 | 11.98431 | 38139 ft | 423 kts | 316° |
| 2026-04-26 17:23 | 41.47999 | 11.93191 | 38140 ft | 423 kts | 316° |
| 2026-04-26 17:23 | 41.52359 | 11.87978 | 38140 ft | 423 kts | 316° |
| 2026-04-26 17:24 | 41.56767 | 11.82696 | 38139 ft | 423 kts | 316° |
| 2026-04-26 17:24 | 41.61116 | 11.77476 | 38142 ft | 423 kts | 316° |
| 2026-04-26 17:25 | 41.65493 | 11.72212 | 38141 ft | 423 kts | 316° |
| 2026-04-26 17:25 | 41.69867 | 11.66942 | 38144 ft | 423 kts | 316° |
| 2026-04-26 17:26 | 41.74236 | 11.61669 | 38136 ft | 422 kts | 316° |
| 2026-04-26 17:26 | 41.78600 | 11.56390 | 38137 ft | 423 kts | 316° |
| 2026-04-26 17:27 | 41.82961 | 11.51104 | 38157 ft | 422 kts | 316° |
| 2026-04-26 17:27 | 41.87319 | 11.45814 | 38138 ft | 422 kts | 316° |
| 2026-04-26 17:28 | 41.91670 | 11.40521 | 38137 ft | 422 kts | 316° |
| 2026-04-26 17:28 | 41.95998 | 11.35245 | 38137 ft | 422 kts | 316° |
| 2026-04-26 17:29 | 41.99636 | 11.30803 | 38144 ft | 422 kts | 316° |
| 2026-04-26 17:29 | 42.04675 | 11.24638 | 38135 ft | 420 kts | 315° |
| 2026-04-26 17:30 | 42.09008 | 11.19328 | 38140 ft | 420 kts | 315° |
| 2026-04-26 17:30 | 42.13293 | 11.14064 | 38138 ft | 419 kts | 315° |
| 2026-04-26 17:31 | 42.17605 | 11.08758 | 38138 ft | 419 kts | 315° |
| 2026-04-26 17:31 | 42.21915 | 11.03443 | 38138 ft | 419 kts | 315° |
| 2026-04-26 17:32 | 42.26221 | 10.98125 | 38138 ft | 419 kts | 315° |
| 2026-04-26 17:32 | 42.30522 | 10.92801 | 38138 ft | 419 kts | 315° |
| 2026-04-26 17:33 | 42.34799 | 10.87497 | 38138 ft | 419 kts | 315° |
| 2026-04-26 17:34 | 42.41250 | 10.79477 | 38139 ft | 419 kts | 315° |
| 2026-04-26 17:34 | 42.45541 | 10.74129 | 38137 ft | 419 kts | 315° |
| 2026-04-26 17:35 | 42.49832 | 10.68773 | 38137 ft | 419 kts | 315° |
| 2026-04-26 17:35 | 42.54097 | 10.63439 | 38144 ft | 419 kts | 315° |
| 2026-04-26 17:36 | 42.58381 | 10.58072 | 38140 ft | 419 kts | 315° |
| 2026-04-26 17:36 | 42.62664 | 10.52696 | 38140 ft | 418 kts | 315° |
| 2026-04-26 17:37 | 42.66928 | 10.47333 | 38138 ft | 418 kts | 315° |
| 2026-04-26 17:37 | 42.71189 | 10.41964 | 38140 ft | 418 kts | 315° |
| 2026-04-26 17:38 | 42.76023 | 10.37598 | 38194 ft | 421 kts | 330° |
| 2026-04-26 17:38 | 42.78561 | 10.35692 | 38122 ft | 421 kts | 328° |
| 2026-04-26 17:38 | 42.83695 | 10.31788 | 38141 ft | 422 kts | 328° |
| 2026-04-26 17:39 | 42.88839 | 10.27888 | 38144 ft | 422 kts | 328° |
| 2026-04-26 17:39 | 42.93973 | 10.23990 | 38140 ft | 422 kts | 328° |
| 2026-04-26 17:40 | 42.98248 | 10.20738 | 38147 ft | 422 kts | 328° |
| 2026-04-26 17:40 | 43.01648 | 10.18149 | 37917 ft | 420 kts | 328° |
| 2026-04-26 17:40 | 43.04220 | 10.16188 | 36951 ft | 426 kts | 328° |
| 2026-04-26 17:41 | 43.06834 | 10.14192 | 36039 ft | 431 kts | 329° |
| 2026-04-26 17:41 | 43.09458 | 10.12186 | 35333 ft | 431 kts | 329° |
| 2026-04-26 17:41 | 43.12072 | 10.10186 | 34721 ft | 430 kts | 329° |
| 2026-04-26 17:41 | 43.14681 | 10.08189 | 34034 ft | 429 kts | 329° |
| 2026-04-26 17:42 | 43.17291 | 10.06188 | 33169 ft | 432 kts | 329° |
| 2026-04-26 17:42 | 43.19916 | 10.04173 | 32346 ft | 433 kts | 329° |
| 2026-04-26 17:42 | 43.22550 | 10.02151 | 31585 ft | 434 kts | 329° |
| 2026-04-26 17:42 | 43.25156 | 10.00147 | 30823 ft | 434 kts | 329° |
| 2026-04-26 17:43 | 43.27803 | 9.98111 | 29966 ft | 437 kts | 329° |
| 2026-04-26 17:43 | 43.30464 | 9.96061 | 28991 ft | 439 kts | 329° |
| 2026-04-26 17:43 | 43.33144 | 9.93995 | 28110 ft | 440 kts | 329° |
| 2026-04-26 17:43 | 43.35814 | 9.91934 | 27226 ft | 441 kts | 329° |
| 2026-04-26 17:44 | 43.38468 | 9.89884 | 26288 ft | 443 kts | 329° |
| 2026-04-26 17:44 | 43.41163 | 9.87799 | 25334 ft | 446 kts | 329° |
| 2026-04-26 17:44 | 43.43895 | 9.85685 | 24308 ft | 451 kts | 329° |
| 2026-04-26 17:44 | 43.46645 | 9.83554 | 23131 ft | 456 kts | 330° |
| 2026-04-26 17:45 | 43.49419 | 9.81403 | 22182 ft | 455 kts | 329° |
| 2026-04-26 17:45 | 43.52154 | 9.79280 | 21486 ft | 448 kts | 329° |
| 2026-04-26 17:45 | 43.54854 | 9.77185 | 20787 ft | 442 kts | 329° |
| 2026-04-26 17:45 | 43.57486 | 9.75144 | 20085 ft | 437 kts | 330° |
| 2026-04-26 17:46 | 43.60125 | 9.73095 | 19386 ft | 433 kts | 330° |
| 2026-04-26 17:46 | 43.62739 | 9.71065 | 18722 ft | 429 kts | 330° |
| 2026-04-26 17:46 | 43.65329 | 9.69051 | 18071 ft | 424 kts | 330° |
| 2026-04-26 17:46 | 43.67880 | 9.67065 | 17448 ft | 417 kts | 330° |
| 2026-04-26 17:47 | 43.70390 | 9.65110 | 16857 ft | 412 kts | 330° |
| 2026-04-26 17:47 | 43.71228 | 9.64456 | 16660 ft | 407 kts | 330° |
| 2026-04-26 17:47 | 43.75230 | 9.61334 | 15150 ft | 391 kts | 330° |
| 2026-04-26 17:47 | 43.77578 | 9.59500 | 14272 ft | 384 kts | 330° |
| 2026-04-26 17:48 | 43.79880 | 9.57700 | 13383 ft | 377 kts | 331° |
| 2026-04-26 17:48 | 43.82108 | 9.55956 | 13041 ft | 356 kts | 331° |
| 2026-04-26 17:48 | 43.84205 | 9.54312 | 12943 ft | 342 kts | 331° |
| 2026-04-26 17:48 | 43.86265 | 9.52698 | 12777 ft | 339 kts | 330° |
| 2026-04-26 17:49 | 43.88315 | 9.51091 | 12579 ft | 338 kts | 330° |
| 2026-04-26 17:49 | 43.90356 | 9.49489 | 12392 ft | 337 kts | 330° |
| 2026-04-26 17:49 | 43.92399 | 9.47884 | 12212 ft | 336 kts | 330° |
| 2026-04-26 17:49 | 43.94395 | 9.46315 | 12035 ft | 330 kts | 330° |
| 2026-04-26 17:50 | 43.96361 | 9.44769 | 11871 ft | 320 kts | 330° |
| 2026-04-26 17:50 | 43.98137 | 9.43001 | 11704 ft | 311 kts | 314° |
| 2026-04-26 17:50 | 43.99490 | 9.40715 | 11525 ft | 304 kts | 313° |
| 2026-04-26 17:50 | 44.01217 | 9.39100 | 11138 ft | 302 kts | 343° |
| 2026-04-26 17:51 | 44.03283 | 9.38852 | 10771 ft | 300 kts | 5° |
| 2026-04-26 17:51 | 44.05365 | 9.38949 | 10404 ft | 298 kts | 0° |
| 2026-04-26 17:51 | 44.07420 | 9.38920 | 10113 ft | 293 kts | 359° |
| 2026-04-26 17:51 | 44.09455 | 9.38860 | 9911 ft | 291 kts | 359° |
| 2026-04-26 17:52 | 44.11476 | 9.38784 | 9744 ft | 291 kts | 359° |
| 2026-04-26 17:52 | 44.13499 | 9.38696 | 9576 ft | 290 kts | 358° |
| 2026-04-26 17:52 | 44.15466 | 9.38136 | 9253 ft | 291 kts | 334° |
| 2026-04-26 17:52 | 44.17100 | 9.36481 | 8899 ft | 291 kts | 321° |
| 2026-04-26 17:53 | 44.18672 | 9.34776 | 8480 ft | 283 kts | 323° |
| 2026-04-26 17:53 | 44.20216 | 9.33130 | 8050 ft | 276 kts | 323° |
| 2026-04-26 17:53 | 44.21712 | 9.31543 | 7598 ft | 265 kts | 323° |
| 2026-04-26 17:54 | 44.24562 | 9.28523 | 6665 ft | 249 kts | 323° |
| 2026-04-26 17:54 | 44.25923 | 9.27082 | 6208 ft | 241 kts | 324° |
| 2026-04-26 17:54 | 44.27243 | 9.25685 | 6025 ft | 237 kts | 323° |
| 2026-04-26 17:54 | 44.28535 | 9.24317 | 5984 ft | 236 kts | 323° |
| 2026-04-26 17:55 | 44.29846 | 9.22931 | 5996 ft | 236 kts | 324° |
| 2026-04-26 17:55 | 44.31161 | 9.21539 | 5998 ft | 237 kts | 323° |
| 2026-04-26 17:55 | 44.32473 | 9.20149 | 6005 ft | 237 kts | 323° |
| 2026-04-26 17:55 | 44.33573 | 9.18454 | 5978 ft | 237 kts | 302° |
| 2026-04-26 17:56 | 44.34238 | 9.16348 | 5829 ft | 238 kts | 288° |
| 2026-04-26 17:56 | 44.35176 | 9.11847 | 4636 ft | 243 kts | 286° |
| 2026-04-26 17:57 | 44.36133 | 9.07463 | 3843 ft | 230 kts | 286° |
| 2026-04-26 17:57 | 44.36585 | 9.05404 | 3480 ft | 219 kts | 285° |
| 2026-04-26 17:57 | 44.37025 | 9.03400 | 3118 ft | 211 kts | 285° |
| 2026-04-26 17:57 | 44.37445 | 9.01490 | 2763 ft | 199 kts | 285° |
| 2026-04-26 17:58 | 44.38510 | 8.96646 | 1886 ft | 154 kts | 284° |
| 2026-04-26 17:59 | 44.39126 | 8.93833 | 1366 ft | 152 kts | 285° |
| 2026-04-26 17:59 | 44.39449 | 8.92415 | 1148 ft | 152 kts | 286° |
| 2026-04-26 17:59 | 44.39761 | 8.91008 | 884 ft | 149 kts | 286° |
| 2026-04-26 17:59 | 44.40098 | 8.89645 | 652 ft | 147 kts | 288° |
| 2026-04-26 18:00 | 44.40310 | 8.88756 | 518 ft | 144 kts | 285° |
| 2026-04-26 18:00 | 44.40575 | 8.87407 | 307 ft | 143 kts | 283° |
| 2026-04-26 18:00 | 44.40832 | 8.86055 | 109 ft | 143 kts | 284° |
| 2026-04-26 18:00 | 44.41150 | 8.84424 | 25 ft | 97 kts | 285° |
| 2026-04-26 18:01 | 44.41231 | 8.84005 | 24 ft | 47 kts | 285° |
| 2026-04-26 18:01 | 44.41306 | 8.83788 | 22 ft | 20 kts | 320° |
| 2026-04-26 18:01 | 44.41394 | 8.83751 | 22 ft | 12 kts | 32° |
| 2026-04-26 18:01 | 44.41415 | 8.83849 | 22 ft | 11 kts | 106° |
| 2026-04-26 18:02 | 44.41392 | 8.83959 | 23 ft | 13 kts | 106° |
| 2026-04-26 18:02 | 44.41380 | 8.84022 | 24 ft | 10 kts | 105° |
| 2026-04-26 18:02 | 44.41361 | 8.84122 | 22 ft | 8 kts | 105° |
| 2026-04-26 18:02 | 44.41343 | 8.84209 | 24 ft | 11 kts | 105° |
| 2026-04-26 18:03 | 44.41321 | 8.84326 | 23 ft | 13 kts | 105° |
| 2026-04-26 18:03 | 44.41326 | 8.84429 | 22 ft | 12 kts | 56° |
| 2026-04-26 18:03 | 44.41386 | 8.84537 | 25 ft | 16 kts | 52° |
| 2026-04-26 18:03 | 44.41458 | 8.84667 | 25 ft | 19 kts | 52° |
| 2026-04-26 18:04 | 44.41533 | 8.84804 | 25 ft | 11 kts | 53° |
| 2026-04-26 18:04 | 44.41590 | 8.84903 | 22 ft | 15 kts | 48° |
| 2026-04-26 18:04 | 44.41634 | 8.84984 | 22 ft | 6 kts | 81° |
| 2026-04-26 18:05 | 44.41601 | 8.85007 | 24 ft | 2 kts | 192° |
| 2026-04-26 18:05 | 44.41599 | 8.85006 | 22 ft | 0 kts | 192° |